createdAt,value
2018-07-28T00:01:28.965Z,100252.14
2018-07-28T00:03:57.910Z,100249.61
2018-07-28T00:06:26.981Z,100249.38
2018-07-28T00:08:55.862Z,100241.66
2018-07-28T00:11:24.732Z,100244.64
2018-07-28T00:14:13.096Z,100246.06
2018-07-28T00:16:42.004Z,100246.19
2018-07-28T00:19:10.925Z,100241.80
2018-07-28T00:21:39.778Z,100238.44
2018-07-28T00:24:08.646Z,100235.22
2018-07-28T00:26:38.664Z,100236.95
2018-07-28T00:29:07.807Z,100237.63
2018-07-28T00:31:38.812Z,100234.79
2018-07-28T00:34:10.796Z,100232.34
2018-07-28T00:36:50.283Z,100237.08
2018-07-28T00:39:19.220Z,100232.58
2018-07-28T00:41:48.112Z,100230.52
2018-07-28T00:44:16.975Z,100231.20
2018-07-28T00:46:58.709Z,100222.91
2018-07-28T00:49:37.529Z,100230.17
2018-07-28T00:52:06.494Z,100229.38
2018-07-28T00:54:35.376Z,100249.44
2018-07-28T00:57:04.314Z,100276.75
2018-07-28T00:59:33.181Z,100272.26
2018-07-28T01:02:05.372Z,100247.94
2018-07-28T01:04:34.289Z,100252.20
2018-07-28T01:07:10.925Z,100254.38
2018-07-28T01:09:39.812Z,100260.97
2018-07-28T01:12:08.798Z,100256.11
2018-07-28T01:14:37.744Z,100252.91
2018-07-28T01:17:12.442Z,100266.09
2018-07-28T01:19:41.332Z,100273.58
2018-07-28T01:22:10.220Z,100267.37
2018-07-28T01:27:56.806Z,100253.29
2018-07-28T01:30:28.756Z,100264.33
2018-07-28T01:33:01.872Z,100259.96
2018-07-28T01:35:30.984Z,100254.12
2018-07-28T01:38:00.910Z,100249.97
2018-07-28T01:40:29.838Z,100251.10
2018-07-28T01:43:08.623Z,100247.55
2018-07-28T01:45:37.496Z,100248.69
2018-07-28T01:48:06.791Z,100245.09
2018-07-28T01:50:35.765Z,100242.11
2018-07-28T01:53:04.644Z,100242.58
2018-07-28T01:55:33.512Z,100227.23
2018-07-28T01:58:19.609Z,100227.34
2018-07-28T02:01:05.457Z,100210.37
2018-07-28T02:03:34.495Z,100206.39
2018-07-28T02:06:23.291Z,100194.23
2018-07-28T02:08:52.220Z,100194.56
2018-07-28T02:11:21.131Z,100190.95
2018-07-28T02:13:50.137Z,100178.62
2018-07-28T02:16:19.129Z,100181.72
2018-07-28T02:18:48.004Z,100177.58
2018-07-28T02:21:23.108Z,100172.80
2018-07-28T02:23:52.008Z,100173.52
2018-07-28T02:26:21.024Z,100163.03
2018-07-28T02:28:50.053Z,100157.17
2018-07-28T02:31:23.021Z,100157.55
2018-07-28T02:33:51.896Z,100164.77
2018-07-28T02:36:27.355Z,100158.72
2018-07-28T02:38:56.367Z,100157.34
2018-07-28T02:41:34.964Z,100153.31
2018-07-28T02:44:04.537Z,100157.11
2018-07-28T02:46:33.377Z,100144.20
2018-07-28T02:49:02.262Z,100152.39
2018-07-28T02:51:31.277Z,100151.50
2018-07-28T02:54:04.303Z,100216.02
2018-07-28T02:56:33.176Z,100275.02
2018-07-28T02:59:03.089Z,100265.53
2018-07-28T03:01:31.981Z,100241.76
2018-07-28T03:04:02.956Z,100286.91
2018-07-28T03:06:56.294Z,100252.53
2018-07-28T03:09:30.829Z,100263.96
2018-07-28T03:12:11.401Z,100269.86
2018-07-28T03:17:52.671Z,100218.42
2018-07-28T03:20:21.573Z,100268.67
2018-07-28T03:23:03.656Z,100218.22
2018-07-28T03:25:39.235Z,100260.88
2018-07-28T03:28:19.460Z,100254.84
2018-07-28T03:30:48.338Z,100240.42
2018-07-28T03:33:17.201Z,100247.59
2018-07-28T03:35:46.068Z,100234.56
2018-07-28T03:38:14.977Z,100240.32
2018-07-28T03:43:36.985Z,100254.16
2018-07-28T03:46:26.436Z,100214.61
2018-07-28T03:48:55.326Z,100258.91
2018-07-28T03:51:24.625Z,100262.86
2018-07-28T03:53:53.976Z,100227.81
2018-07-28T03:56:22.915Z,100229.09
2018-07-28T03:58:52.252Z,100254.38
2018-07-28T04:01:22.049Z,100255.48
2018-07-28T04:03:51.330Z,100225.41
2018-07-28T04:06:21.262Z,100226.73
2018-07-28T04:08:50.134Z,100220.19
2018-07-28T04:11:31.548Z,100216.84
2018-07-28T04:14:00.424Z,100229.81
2018-07-28T04:16:29.307Z,100221.27
2018-07-28T04:18:58.188Z,100209.35
2018-07-28T04:21:27.113Z,100211.41
2018-07-28T04:23:55.992Z,100225.58
2018-07-28T04:26:24.940Z,100225.88
2018-07-28T04:28:53.955Z,100204.71
2018-07-28T04:31:22.922Z,100200.79
2018-07-28T04:33:55.458Z,100193.39
2018-07-28T04:36:28.860Z,100190.05
2018-07-28T04:38:58.554Z,100197.58
2018-07-28T04:41:29.609Z,100184.27
2018-07-28T04:46:55.404Z,100187.31
2018-07-28T04:49:25.396Z,100191.20
2018-07-28T04:52:14.094Z,100179.91
2018-07-28T04:54:55.338Z,100169.09
2018-07-28T04:57:47.833Z,100170.70
2018-07-28T05:00:16.800Z,100178.47
2018-07-28T05:05:49.847Z,100172.45
2018-07-28T05:08:28.944Z,100182.42
2018-07-28T05:10:58.162Z,100187.59
2018-07-28T05:13:29.256Z,100183.42
2018-07-28T05:16:00.258Z,100179.05
2018-07-28T05:18:41.539Z,100158.44
2018-07-28T05:21:11.447Z,100150.62
2018-07-28T05:23:47.477Z,100153.50
2018-07-28T05:26:17.470Z,100151.74
2018-07-28T05:28:46.404Z,100152.58
2018-07-28T05:31:27.661Z,100145.74
2018-07-28T05:34:01.830Z,100147.36
2018-07-28T05:36:30.868Z,100159.77
2018-07-28T05:39:03.312Z,100165.70
2018-07-28T05:41:32.486Z,100159.99
2018-07-28T05:44:01.679Z,100152.36
2018-07-28T05:46:31.090Z,100157.78
2018-07-28T05:49:06.256Z,100163.13
2018-07-28T05:51:58.279Z,100161.61
2018-07-28T05:54:27.181Z,100173.15
2018-07-28T05:56:56.257Z,100217.52
2018-07-28T05:59:25.166Z,100296.68
2018-07-28T06:01:54.031Z,100300.41
2018-07-28T06:07:18.880Z,100285.42
2018-07-28T06:09:47.834Z,100282.15
2018-07-28T06:12:16.792Z,100260.17
2018-07-28T06:14:53.523Z,100284.89
2018-07-28T06:17:32.351Z,100294.84
2018-07-28T06:20:03.456Z,100278.93
2018-07-28T06:22:32.458Z,100289.20
2018-07-28T06:25:02.712Z,100282.27
2018-07-28T06:27:35.770Z,100287.51
2018-07-28T06:30:09.058Z,100287.17
2018-07-28T06:32:41.436Z,100278.04
2018-07-28T06:35:10.541Z,100283.16
2018-07-28T06:37:41.472Z,100275.35
2018-07-28T06:40:15.519Z,100259.21
2018-07-28T06:42:44.392Z,100265.09
2018-07-28T06:45:13.256Z,100273.72
2018-07-28T06:47:46.270Z,100276.94
2018-07-28T06:50:15.143Z,100268.94
2018-07-28T06:52:44.095Z,100264.93
2018-07-28T06:55:26.233Z,100268.61
2018-07-28T06:58:00.491Z,100278.95
2018-07-28T07:00:29.440Z,100273.08
2018-07-28T07:02:58.412Z,100283.99
2018-07-28T07:05:27.318Z,100291.66
2018-07-28T07:08:06.926Z,100307.41
2018-07-28T07:10:37.016Z,100299.66
2018-07-28T07:13:10.372Z,100304.45
2018-07-28T07:15:46.887Z,100302.61
2018-07-28T07:18:17.789Z,100317.84
2018-07-28T07:21:06.645Z,100313.59
2018-07-28T07:23:36.638Z,100314.22
2018-07-28T07:26:06.616Z,100316.70
2018-07-28T07:28:41.514Z,100317.42
2018-07-28T07:31:12.454Z,100320.89
2018-07-28T07:33:41.615Z,100325.70
2018-07-28T07:36:10.584Z,100319.56
2018-07-28T07:38:58.064Z,100321.31
2018-07-28T07:41:26.944Z,100322.27
2018-07-28T07:43:57.272Z,100325.82
2018-07-28T07:46:37.548Z,100329.75
2018-07-28T07:49:08.661Z,100324.29
2018-07-28T07:51:38.619Z,100326.47
2018-07-28T07:54:09.612Z,100325.10
2018-07-28T07:59:35.984Z,100308.28
2018-07-28T08:02:10.650Z,100308.27
2018-07-28T08:04:40.643Z,100307.41
2018-07-28T08:07:16.812Z,100312.16
2018-07-28T08:09:45.846Z,100303.41
2018-07-28T08:12:22.568Z,100297.73
2018-07-28T08:14:51.866Z,100298.94
2018-07-28T08:17:20.777Z,100295.22
2018-07-28T08:19:50.733Z,100305.02
2018-07-28T08:22:30.325Z,100313.11
2018-07-28T08:25:07.561Z,100318.87
2018-07-28T08:27:40.078Z,100308.98
2018-07-28T08:30:12.314Z,100322.67
2018-07-28T08:32:54.883Z,100327.28
2018-07-28T08:35:24.773Z,100334.09
2018-07-28T08:37:54.750Z,100336.59
2018-07-28T08:40:28.185Z,100357.02
2018-07-28T08:42:57.322Z,100364.91
2018-07-28T08:48:21.512Z,100365.08
2018-07-28T08:50:57.142Z,100371.08
2018-07-28T08:53:44.374Z,100374.38
2018-07-28T08:56:19.404Z,100383.72
2018-07-28T08:58:54.483Z,100385.26
2018-07-28T09:01:23.619Z,100404.20
2018-07-28T09:03:56.350Z,100413.51
2018-07-28T09:06:26.416Z,100410.84
2018-07-28T09:08:55.931Z,100403.62
2018-07-28T09:11:25.923Z,100414.01
2018-07-28T09:14:01.490Z,100408.16
2018-07-28T09:16:34.266Z,100409.70
2018-07-28T09:19:13.083Z,100413.13
2018-07-28T09:21:42.150Z,100402.28
2018-07-28T09:24:11.727Z,100412.80
2018-07-28T09:26:56.980Z,100421.60
2018-07-28T09:29:26.009Z,100430.03
2018-07-28T09:31:55.438Z,100424.11
2018-07-28T09:34:29.003Z,100427.02
2018-07-28T09:36:58.549Z,100416.91
2018-07-28T09:39:32.645Z,100418.74
2018-07-28T09:42:24.397Z,100418.12
2018-07-28T09:44:58.704Z,100412.28
2018-07-28T09:47:30.856Z,100411.41
2018-07-28T09:50:00.862Z,100409.62
2018-07-28T09:52:30.090Z,100410.58
2018-07-28T09:55:00.253Z,100405.85
2018-07-28T10:00:27.842Z,100412.56
2018-07-28T10:03:08.747Z,100407.05
2018-07-28T10:05:44.392Z,100406.66
2018-07-28T10:08:13.722Z,100406.48
2018-07-28T10:10:43.900Z,100404.21
2018-07-28T10:13:14.107Z,100399.59
2018-07-28T10:15:49.493Z,100394.81
2018-07-28T10:18:23.099Z,100392.69
2018-07-28T10:20:56.053Z,100383.96
2018-07-28T10:23:25.205Z,100395.92
2018-07-28T10:25:55.728Z,100410.44
2018-07-28T10:28:24.795Z,100417.31
2018-07-28T10:31:07.203Z,100417.30
2018-07-28T10:33:41.870Z,100418.70
2018-07-28T10:36:12.136Z,100409.61
2018-07-28T10:38:47.812Z,100413.53
2018-07-28T10:41:17.264Z,100409.52
2018-07-28T10:43:48.585Z,100422.08
2018-07-28T10:46:21.954Z,100416.28
2018-07-28T10:48:53.245Z,100417.42
2018-07-28T10:51:38.767Z,100418.28
2018-07-28T10:54:12.073Z,100416.49
2018-07-28T10:56:55.026Z,100415.36
2018-07-28T10:59:26.163Z,100419.93
2018-07-28T11:01:56.951Z,100415.77
2018-07-28T11:04:31.494Z,100421.20
2018-07-28T11:07:05.703Z,100420.30
2018-07-28T11:09:39.162Z,100416.17
2018-07-28T11:12:11.906Z,100415.38
2018-07-28T11:14:41.889Z,100411.74
2018-07-28T11:17:24.736Z,100408.97
2018-07-28T11:19:54.640Z,100415.28
2018-07-28T11:22:25.549Z,100407.98
2018-07-28T11:24:58.045Z,100412.71
2018-07-28T11:27:29.267Z,100407.20
2018-07-28T11:29:59.415Z,100399.84
2018-07-28T11:32:43.097Z,100402.95
2018-07-28T11:35:24.261Z,100391.80
2018-07-28T11:38:07.407Z,100389.48
2018-07-28T11:40:47.833Z,100373.70
2018-07-28T11:43:29.246Z,100365.11
2018-07-28T11:46:00.393Z,100384.95
2018-07-28T11:48:35.152Z,100386.77
2018-07-28T11:51:21.639Z,100386.31
2018-07-28T11:54:08.537Z,100388.63
2018-07-28T11:56:38.518Z,100388.86
2018-07-28T11:59:14.053Z,100394.36
2018-07-28T12:01:48.818Z,100387.11
2018-07-28T12:04:17.758Z,100390.99
2018-07-28T12:06:47.073Z,100389.40
2018-07-28T12:09:16.295Z,100384.64
2018-07-28T12:11:47.298Z,100385.47
2018-07-28T12:14:21.042Z,100393.48
2018-07-28T12:16:52.551Z,100386.64
2018-07-28T12:19:21.517Z,100394.85
2018-07-28T12:21:52.536Z,100395.55
2018-07-28T12:24:29.973Z,100388.87
2018-07-28T12:27:08.407Z,100394.31
2018-07-28T12:29:57.269Z,100391.31
2018-07-28T12:32:26.580Z,100396.28
2018-07-28T12:35:01.061Z,100398.44
2018-07-28T12:37:37.793Z,100400.67
2018-07-28T12:40:11.315Z,100406.17
2018-07-28T12:42:40.490Z,100397.83
2018-07-28T12:45:09.458Z,100406.95
2018-07-28T12:47:38.448Z,100406.05
2018-07-28T12:50:07.667Z,100405.95
2018-07-28T12:52:37.721Z,100403.64
2018-07-28T12:55:07.661Z,100404.55
2018-07-28T12:57:38.624Z,100402.62
2018-07-28T13:00:07.613Z,100398.37
2018-07-28T13:02:40.306Z,100401.55
2018-07-28T13:05:13.429Z,100410.70
2018-07-28T13:07:43.399Z,100410.69
2018-07-28T13:10:24.654Z,100409.30
2018-07-28T13:12:57.455Z,100408.62
2018-07-28T13:15:28.400Z,100409.42
2018-07-28T13:17:58.482Z,100411.85
2018-07-28T13:20:31.459Z,100406.20
2018-07-28T13:23:00.346Z,100406.89
2018-07-28T13:25:29.745Z,100415.05
2018-07-28T13:27:59.240Z,100406.85
2018-07-28T13:30:28.700Z,100405.27
2018-07-28T13:33:02.234Z,100401.94
2018-07-28T13:35:51.953Z,100399.26
2018-07-28T13:38:33.754Z,100400.44
2018-07-28T13:41:02.658Z,100399.97
2018-07-28T13:43:31.604Z,100399.73
2018-07-28T13:46:04.440Z,100397.44
2018-07-28T13:48:50.338Z,100390.48
2018-07-28T13:51:19.191Z,100381.20
2018-07-28T13:53:48.177Z,100402.77
2018-07-28T13:56:17.049Z,100395.85
2018-07-28T13:58:45.956Z,100391.95
2018-07-28T14:01:15.588Z,100381.24
2018-07-28T14:03:44.712Z,100370.53
2018-07-28T14:06:13.851Z,100374.47
2018-07-28T14:08:42.755Z,100376.29
2018-07-28T14:11:11.707Z,100381.23
2018-07-28T14:13:40.942Z,100375.39
2018-07-28T14:16:10.648Z,100373.63
2018-07-28T14:18:41.064Z,100382.47
2018-07-28T14:21:11.017Z,100375.20
2018-07-28T14:23:43.356Z,100375.13
2018-07-28T14:26:17.700Z,100372.80
2018-07-28T14:28:48.358Z,100369.01
2018-07-28T14:31:18.610Z,100372.67
2018-07-28T14:33:51.304Z,100375.68
2018-07-28T14:36:27.371Z,100385.24
2018-07-28T14:38:57.303Z,100399.90
2018-07-28T14:41:27.856Z,100395.72
2018-07-28T14:43:57.475Z,100384.64
2018-07-28T14:46:26.754Z,100391.71
2018-07-28T14:48:58.087Z,100396.45
2018-07-28T14:51:27.354Z,100408.35
2018-07-28T14:53:57.514Z,100409.50
2018-07-28T14:56:27.022Z,100415.85
2018-07-28T14:59:00.089Z,100423.92
2018-07-28T15:01:29.464Z,100430.48
2018-07-28T15:03:58.835Z,100422.67
2018-07-28T15:06:28.372Z,100429.36
2018-07-28T15:09:00.289Z,100437.42
2018-07-28T15:11:30.206Z,100448.50
2018-07-28T15:14:00.038Z,100447.84
2018-07-28T15:16:29.504Z,100444.65
2018-07-28T15:18:59.152Z,100443.27
2018-07-28T15:21:29.561Z,100452.53
2018-07-28T15:23:58.934Z,100461.80
2018-07-28T15:26:27.792Z,100465.69
2018-07-28T15:28:56.769Z,100470.55
2018-07-28T15:31:25.821Z,100471.11
2018-07-28T15:33:54.872Z,100469.05
2018-07-28T15:36:26.098Z,100481.52
2018-07-28T15:38:56.143Z,100470.91
2018-07-28T15:41:25.069Z,100480.41
2018-07-28T15:43:57.402Z,100472.84
2018-07-28T15:46:26.358Z,100477.53
2018-07-28T15:48:59.138Z,100477.66
2018-07-28T15:51:28.125Z,100475.61
2018-07-28T15:53:57.088Z,100485.29
2018-07-28T15:56:26.033Z,100489.98
2018-07-28T15:58:54.929Z,100495.37
2018-07-28T16:01:23.829Z,100491.07
2018-07-28T16:03:53.159Z,100490.63
2018-07-28T16:06:22.067Z,100486.94
2018-07-28T16:08:51.136Z,100489.70
2018-07-28T16:11:20.044Z,100495.09
2018-07-28T16:13:48.935Z,100494.94
2018-07-28T16:16:17.969Z,100500.14
2018-07-28T16:18:48.315Z,100505.12
2018-07-28T16:21:17.269Z,100511.13
2018-07-28T16:23:46.405Z,100504.67
2018-07-28T16:26:15.749Z,100526.31
2018-07-28T16:28:47.778Z,100519.41
2018-07-28T16:31:24.973Z,100515.17
2018-07-28T16:33:54.000Z,100519.31
2018-07-28T16:36:23.056Z,100526.59
2018-07-28T16:38:51.984Z,100533.98
2018-07-28T16:41:21.016Z,100539.07
2018-07-28T16:43:49.840Z,100537.69
2018-07-28T16:46:19.766Z,100537.79
2018-07-28T16:48:52.868Z,100545.00
2018-07-28T16:51:21.762Z,100554.31
2018-07-28T16:54:08.830Z,100556.67
2018-07-28T16:56:37.872Z,100558.27
2018-07-28T16:59:06.821Z,100563.33
2018-07-28T17:01:35.715Z,100567.23
2018-07-28T17:04:04.669Z,100571.05
2018-07-28T17:06:34.668Z,100574.48
2018-07-28T17:09:04.681Z,100587.15
2018-07-28T17:11:45.965Z,100587.49
2018-07-28T17:14:15.003Z,100591.55
2018-07-28T17:16:49.596Z,100589.94
2018-07-28T17:19:34.905Z,100599.03
2018-07-28T17:22:11.414Z,100595.70
2018-07-28T17:24:40.310Z,100606.33
2018-07-28T17:27:09.202Z,100614.59
2018-07-28T17:29:38.088Z,100609.33
2018-07-28T17:32:07.237Z,100620.73
2018-07-28T17:34:36.105Z,100629.34
2018-07-28T17:37:09.189Z,100625.11
2018-07-28T17:39:49.783Z,100631.43
2018-07-28T17:42:18.680Z,100636.16
2018-07-28T17:44:47.555Z,100636.40
2018-07-28T17:47:16.456Z,100639.80
2018-07-28T17:49:50.511Z,100642.38
2018-07-28T17:52:43.471Z,100647.03
2018-07-28T17:55:15.082Z,100656.94
2018-07-28T17:57:45.066Z,100662.05
2018-07-28T18:00:15.928Z,100664.95
2018-07-28T18:02:50.378Z,100670.41
2018-07-28T18:05:23.876Z,100677.80
2018-07-28T18:07:53.805Z,100681.53
2018-07-28T18:10:22.736Z,100687.28
2018-07-28T18:12:51.604Z,100681.19
2018-07-28T18:15:20.471Z,100690.20
2018-07-28T18:17:50.449Z,100703.07
2018-07-28T18:20:20.860Z,100693.48
2018-07-28T18:22:50.160Z,100711.50
2018-07-28T18:25:19.584Z,100701.84
2018-07-28T18:27:48.963Z,100708.88
2018-07-28T18:30:18.168Z,100713.77
2018-07-28T18:32:47.561Z,100708.75
2018-07-28T18:35:16.939Z,100714.31
2018-07-28T18:37:46.678Z,100715.39
2018-07-28T18:40:17.979Z,100727.62
2018-07-28T18:42:52.409Z,100735.97
2018-07-28T18:45:21.495Z,100743.61
2018-07-28T18:47:50.349Z,100749.60
2018-07-28T18:50:25.217Z,100756.03
2018-07-28T18:52:54.091Z,100757.24
2018-07-28T18:55:23.316Z,100751.30
2018-07-28T18:57:54.276Z,100752.03
2018-07-28T19:00:23.186Z,100756.00
2018-07-28T19:02:55.525Z,100753.56
2018-07-28T19:05:25.456Z,100763.63
2018-07-28T19:07:54.343Z,100764.53
2018-07-28T19:10:25.284Z,100761.85
2018-07-28T19:13:13.691Z,100770.18
2018-07-28T19:15:42.552Z,100768.88
2018-07-28T19:18:16.909Z,100767.91
2018-07-28T19:20:45.719Z,100778.58
2018-07-28T19:23:20.084Z,100785.73
2018-07-28T19:25:54.552Z,100789.52
2018-07-28T19:28:28.747Z,100801.04
2018-07-28T19:30:57.687Z,100798.17
2018-07-28T19:33:26.526Z,100800.32
2018-07-28T19:36:00.827Z,100805.11
2018-07-28T19:38:34.453Z,100811.15
2018-07-28T19:41:03.264Z,100815.58
2018-07-28T19:43:33.253Z,100817.81
2018-07-28T19:46:04.308Z,100822.66
2018-07-28T19:48:33.180Z,100826.34
2018-07-28T19:51:15.011Z,100832.59
2018-07-28T19:53:43.896Z,100830.66
2018-07-28T19:56:12.901Z,100836.14
2018-07-28T19:58:41.869Z,100837.27
2018-07-28T20:01:15.822Z,100845.60
2018-07-28T20:03:44.817Z,100855.09
2018-07-28T20:06:13.728Z,100860.03
2018-07-28T20:08:44.697Z,100862.66
2018-07-28T20:11:13.984Z,100869.54
2018-07-28T20:13:43.938Z,100871.55
2018-07-28T20:16:13.900Z,100877.83
2018-07-28T20:18:47.536Z,100881.10
2018-07-28T20:21:16.389Z,100885.91
2018-07-28T20:23:51.342Z,100889.72
2018-07-28T20:26:20.276Z,100896.67
2018-07-28T20:28:49.270Z,100902.63
2018-07-28T20:31:26.178Z,100906.31
2018-07-28T20:33:58.745Z,100909.30
2018-07-28T20:36:28.746Z,100914.59
2018-07-28T20:38:57.680Z,100910.55
2018-07-28T20:41:26.619Z,100916.62
2018-07-28T20:43:56.534Z,100923.23
2018-07-28T20:46:30.674Z,100913.35
2018-07-28T20:49:01.622Z,100922.01
2018-07-28T20:51:30.494Z,100925.67
2018-07-28T20:54:15.628Z,100924.73
2018-07-28T20:56:46.593Z,100931.40
2018-07-28T20:59:18.994Z,100933.75
2018-07-28T21:01:52.054Z,100937.73
2018-07-28T21:04:20.929Z,100936.08
2018-07-28T21:06:50.894Z,100937.19
2018-07-28T21:09:19.788Z,100938.23
2018-07-28T21:11:48.710Z,100936.91
2018-07-28T21:14:24.570Z,100944.23
2018-07-28T21:16:57.536Z,100947.77
2018-07-28T21:19:26.446Z,100952.41
2018-07-28T21:21:55.316Z,100956.63
2018-07-28T21:24:43.003Z,100955.91
2018-07-28T21:27:11.890Z,100956.34
2018-07-28T21:29:40.900Z,100957.02
2018-07-28T21:32:24.815Z,100954.28
2018-07-28T21:34:53.702Z,100958.84
2018-07-28T21:37:33.116Z,100967.09
2018-07-28T21:40:14.324Z,100965.58
2018-07-28T21:42:43.256Z,100965.03
2018-07-28T21:45:12.166Z,100965.81
2018-07-28T21:47:41.077Z,100967.69
2018-07-28T21:50:10.799Z,100975.42
2018-07-28T21:52:45.159Z,100974.90
2018-07-28T21:55:14.033Z,100980.66
2018-07-28T21:57:42.982Z,100976.95
2018-07-28T22:00:11.908Z,100979.23
2018-07-28T22:02:40.807Z,100993.52
2018-07-28T22:05:09.836Z,101000.38
2018-07-28T22:07:38.752Z,101000.55
2018-07-28T22:13:10.892Z,101001.29
2018-07-28T22:15:44.267Z,101010.48
2018-07-28T22:18:13.133Z,101018.88
2018-07-28T22:20:47.089Z,101020.97
2018-07-28T22:23:32.617Z,101023.26
2018-07-28T22:26:08.238Z,101021.39
2018-07-28T22:28:48.167Z,101031.57
2018-07-28T22:31:17.163Z,101031.68
2018-07-28T22:33:48.114Z,101034.73
2018-07-28T22:36:28.521Z,101035.50
2018-07-28T22:39:12.487Z,101037.81
2018-07-28T22:41:49.505Z,101038.17
2018-07-28T22:44:19.424Z,101034.70
2018-07-28T22:46:53.006Z,101029.94
2018-07-28T22:49:25.362Z,101031.12
2018-07-28T22:51:55.284Z,101022.19
2018-07-28T22:54:24.272Z,101022.54
2018-07-28T22:56:58.431Z,101024.59
2018-07-28T22:59:34.168Z,101017.47
2018-07-28T23:02:03.152Z,101022.06
2018-07-28T23:04:34.049Z,101027.38
2018-07-28T23:07:06.588Z,101020.95
2018-07-28T23:09:35.550Z,101025.51
2018-07-28T23:12:04.424Z,101026.44
2018-07-28T23:14:33.316Z,101026.30
2018-07-28T23:17:02.228Z,101026.23
2018-07-28T23:19:31.109Z,101029.78
2018-07-28T23:22:17.996Z,101023.56
2018-07-28T23:24:46.872Z,101028.36
2018-07-28T23:27:16.783Z,101031.38
2018-07-28T23:29:50.686Z,101026.78
2018-07-28T23:32:19.660Z,101029.07
2018-07-28T23:34:50.679Z,101036.38
2018-07-28T23:37:19.535Z,101038.82
2018-07-28T23:39:48.480Z,101049.22
2018-07-28T23:42:17.386Z,101048.98
2018-07-28T23:44:46.290Z,101051.72
2018-07-28T23:47:15.201Z,101053.65
2018-07-28T23:49:44.069Z,101053.73
2018-07-28T23:52:12.921Z,101062.83
2018-07-28T23:54:48.082Z,101067.67
2018-07-28T23:57:17.082Z,101061.36
2018-07-28T23:59:45.978Z,101061.53
